Time;durP1;ratioP1;P1;durP2;ratioP2;P2;SDS_P1;SDS_P2;PMS_P1;PMS_P2;Temp;Humidity;BMP_temperature;BMP_pressure;BME280_temperature;BME280_humidity;BME280_pressure;Samples;Min_cycle;Max_cycle;Signal;HPM_P1;HPM_P2
2023/07/16 00:02:11;;;;;;;13.50;13.10;;;23.10;99.90;;;;;;4922184;29;20548;-84
2023/07/16 00:04:39;;;;;;;13.53;13.03;;;23.10;1.00;;;;;;4907775;29;20485;-84
2023/07/16 00:07:10;;;;;;;13.53;13.13;;;23.10;99.90;;;;;;4901360;29;21014;-84
2023/07/16 00:09:38;;;;;;;13.80;13.30;;;23.00;1.00;;;;;;4920320;29;20547;-83
2023/07/16 00:12:08;;;;;;;13.57;13.23;;;23.00;99.90;;;;;;4922747;29;20468;-84
2023/07/16 00:14:36;;;;;;;13.90;13.50;;;22.90;99.90;;;;;;4915816;29;20457;-85
2023/07/16 00:17:05;;;;;;;13.97;13.57;;;22.90;1.00;;;;;;4915950;29;20576;-84
2023/07/16 00:19:33;;;;;;;13.87;13.37;;;22.90;1.00;;;;;;4920916;29;20540;-84
2023/07/16 00:22:01;;;;;;;13.60;13.30;;;22.90;99.90;;;;;;4923025;29;20461;-83
2023/07/16 00:24:31;;;;;;;13.97;13.47;;;22.90;1.00;;;;;;4921798;29;20457;-86
2023/07/16 00:26:59;;;;;;;13.70;13.40;;;22.80;49.40;;;;;;4920841;29;21192;-86
2023/07/16 00:29:27;;;;;;;13.23;12.73;;;22.70;1.00;;;;;;4919907;29;21355;-86
2023/07/16 00:31:55;;;;;;;13.53;13.10;;;22.70;99.90;;;;;;4920626;29;20901;-86
2023/07/16 00:34:24;;;;;;;13.30;12.90;;;22.70;99.90;;;;;;4905694;29;20468;-86
2023/07/16 00:36:52;;;;;;;13.30;13.00;;;22.70;99.90;;;;;;4923592;29;20472;-84
2023/07/16 00:39:20;;;;;;;13.30;12.90;;;22.70;1.00;;;;;;4919751;29;20458;-84
2023/07/16 00:41:50;;;;;;;13.30;13.00;;;22.80;99.90;;;;;;4918857;29;20468;-84
2023/07/16 00:44:18;;;;;;;13.10;12.80;;;22.80;99.90;;;;;;4916411;29;20560;-85
2023/07/16 00:46:46;;;;;;;12.90;12.60;;;22.80;99.90;;;;;;4923380;29;20499;-84
2023/07/16 00:49:14;;;;;;;13.23;12.93;;;22.70;1.00;;;;;;4920368;29;20528;-84
2023/07/16 00:51:43;;;;;;;13.60;13.20;;;22.80;1.00;;;;;;4921491;29;20467;-82
2023/07/16 00:54:12;;;;;;;13.40;12.90;;;22.80;99.90;;;;;;4918849;29;20465;-82
2023/07/16 00:56:40;;;;;;;13.23;12.83;;;22.80;99.90;;;;;;4920289;29;20476;-85
2023/07/16 00:59:10;;;;;;;12.83;12.53;;;22.70;99.90;;;;;;4919672;29;20456;-84
2023/07/16 01:01:40;;;;;;;13.40;13.00;;;22.70;70.80;;;;;;4923097;29;20576;-84
2023/07/16 01:04:08;;;;;;;13.43;13.03;;;22.70;1.00;;;;;;4901600;29;20472;-86
2023/07/16 01:06:40;;;;;;;13.63;13.13;;;22.70;1.00;;;;;;4919097;29;20942;-85
2023/07/16 01:09:11;;;;;;;13.30;13.00;;;22.60;1.00;;;;;;4900888;29;20516;-87
2023/07/16 01:11:42;;;;;;;13.53;13.13;;;22.50;1.00;;;;;;4920230;29;20551;-85
2023/07/16 01:14:13;;;;;;;13.20;12.80;;;22.40;1.00;;;;;;4922486;29;20445;-86
2023/07/16 01:16:43;;;;;;;13.10;12.80;;;22.40;1.00;;;;;;4920335;29;20499;-85
2023/07/16 01:19:13;;;;;;;13.37;12.97;;;22.40;1.00;;;;;;4904857;29;20469;-88
2023/07/16 01:21:51;;;;;;;13.70;13.20;;;22.30;1.00;;;;;;4921330;29;20457;-87
2023/07/16 01:24:48;;;;;;;13.20;12.80;;;22.30;1.00;;;;;;4921058;29;20556;-87
2023/07/16 01:27:45;;;;;;;13.03;12.73;;;22.30;1.00;;;;;;4889081;29;20485;-87
2023/07/16 01:30:16;;;;;;;12.87;12.53;;;22.30;1.00;;;;;;4916400;29;20592;-85
2023/07/16 01:32:46;;;;;;;13.17;12.87;;;22.20;1.00;;;;;;4921822;29;20838;-85
2023/07/16 01:35:15;;;;;;;12.60;12.30;;;22.20;1.00;;;;;;4922732;29;21003;-86
2023/07/16 01:37:44;;;;;;;12.90;12.60;;;22.10;1.00;;;;;;4906288;29;20481;-85
2023/07/16 01:40:12;;;;;;;13.33;12.93;;;22.10;1.00;;;;;;4921337;29;20468;-85
2023/07/16 01:42:41;;;;;;;13.30;12.90;;;22.10;1.00;;;;;;4920651;29;20543;-85
2023/07/16 01:45:10;;;;;;;13.00;12.70;;;22.10;1.00;;;;;;4924096;29;20979;-86
2023/07/16 01:47:52;;;;;;;13.47;13.00;;;22.20;1.00;;;;;;4924368;29;20514;-86
2023/07/16 01:50:21;;;;;;;13.10;12.80;;;22.10;1.00;;;;;;4923267;29;20461;-87
2023/07/16 01:52:49;;;;;;;13.33;12.93;;;22.20;1.00;;;;;;4922056;29;20462;-86
2023/07/16 01:55:17;;;;;;;13.00;12.70;;;22.10;1.00;;;;;;4921985;29;20525;-84
2023/07/16 01:57:45;;;;;;;13.50;13.17;;;21.90;1.00;;;;;;4927186;29;20484;-85
2023/07/16 02:00:14;;;;;;;13.00;12.70;;;22.00;1.00;;;;;;4905194;29;20895;-86
2023/07/16 02:02:43;;;;;;;13.40;13.10;;;22.00;1.00;;;;;;4924481;29;20468;-86
2023/07/16 02:05:12;;;;;;;13.30;12.87;;;21.80;1.00;;;;;;4925572;29;20554;-86
2023/07/16 02:07:40;;;;;;;13.30;13.00;;;21.80;1.00;;;;;;4908257;29;21102;-85
2023/07/16 02:10:09;;;;;;;13.60;13.20;;;21.80;1.00;;;;;;4923183;29;20843;-84
2023/07/16 02:12:37;;;;;;;13.60;13.07;;;21.80;1.00;;;;;;4922120;29;20475;-86
2023/07/16 02:15:06;;;;;;;13.30;13.00;;;21.80;1.00;;;;;;4925351;29;20506;-84
2023/07/16 02:17:34;;;;;;;13.20;12.90;;;21.90;1.00;;;;;;4924230;29;20548;-84
2023/07/16 02:20:06;;;;;;;13.30;13.00;;;21.80;1.00;;;;;;4921831;29;20490;-84
2023/07/16 02:22:36;;;;;;;13.60;13.20;;;21.80;1.00;;;;;;4920599;29;20607;-85
2023/07/16 02:25:05;;;;;;;13.37;13.07;;;21.80;1.00;;;;;;4925281;29;20457;-85
2023/07/16 02:27:33;;;;;;;13.70;13.30;;;21.80;1.00;;;;;;4910277;29;20488;-85
2023/07/16 02:30:01;;;;;;;13.80;13.30;;;21.80;1.00;;;;;;4921805;29;21337;-85
2023/07/16 02:32:29;;;;;;;13.53;13.23;;;21.60;1.00;;;;;;4923973;29;20471;-84
2023/07/16 02:34:57;;;;;;;13.20;12.90;;;21.60;1.00;;;;;;4925040;29;20471;-84
2023/07/16 02:37:27;;;;;;;13.70;13.30;;;21.60;1.00;;;;;;4923262;29;20509;-83
2023/07/16 02:39:55;;;;;;;13.60;13.30;;;21.50;1.00;;;;;;4926133;29;20509;-86
2023/07/16 02:42:24;;;;;;;13.10;12.80;;;21.50;1.00;;;;;;4924492;29;20544;-85
2023/07/16 02:44:52;;;;;;;13.50;13.00;;;21.50;1.00;;;;;;4924672;29;20465;-85
2023/07/16 02:47:20;;;;;;;13.37;13.07;;;21.50;1.00;;;;;;4922261;29;20485;-83
2023/07/16 02:49:52;;;;;;;13.40;13.00;;;21.40;1.00;;;;;;4924032;29;20454;-84
2023/07/16 02:52:20;;;;;;;13.50;13.10;;;21.40;1.00;;;;;;4926835;29;20974;-87
2023/07/16 02:54:49;;;;;;;13.53;13.13;;;21.40;1.00;;;;;;4925510;29;20469;-87
2023/07/16 02:57:18;;;;;;;13.50;13.10;;;21.30;1.00;;;;;;4925131;29;20575;-84
2023/07/16 02:59:46;;;;;;;13.47;13.03;;;21.30;1.00;;;;;;4922564;29;20456;-85
2023/07/16 03:02:14;;;;;;;13.50;13.20;;;21.40;1.00;;;;;;4923172;29;20961;-85
2023/07/16 03:04:42;;;;;;;13.17;12.87;;;21.40;1.00;;;;;;4925482;29;20465;-86
2023/07/16 03:07:10;;;;;;;13.40;13.10;;;21.30;1.00;;;;;;4922486;29;20489;-86
2023/07/16 03:09:38;;;;;;;13.60;13.07;;;21.40;1.00;;;;;;4926669;29;20496;-85
2023/07/16 03:12:09;;;;;;;13.07;12.67;;;21.40;1.00;;;;;;4904872;29;20603;-86
2023/07/16 03:14:37;;;;;;;13.10;12.73;;;21.30;1.00;;;;;;4923328;29;20527;-86
2023/07/16 03:17:06;;;;;;;13.17;12.80;;;21.30;1.00;;;;;;4908153;29;20496;-86
2023/07/16 03:19:35;;;;;;;13.63;13.13;;;21.20;1.00;;;;;;4921688;29;20536;-86
2023/07/16 03:22:03;;;;;;;13.40;13.00;;;21.20;1.00;;;;;;4919460;29;20852;-86
2023/07/16 03:24:32;;;;;;;13.30;12.80;;;21.20;1.00;;;;;;4904574;29;20476;-85
2023/07/16 03:27:00;;;;;;;14.10;13.50;;;21.20;1.00;;;;;;4922415;29;21041;-85
2023/07/16 03:29:46;;;;;;;13.80;13.40;;;21.30;1.00;;;;;;4918775;29;20508;-84
2023/07/16 03:32:14;;;;;;;14.60;13.90;;;21.30;1.00;;;;;;4920761;29;20548;-86
2023/07/16 03:34:42;;;;;;;13.77;13.27;;;21.30;1.00;;;;;;4922979;29;20464;-87
2023/07/16 03:37:10;;;;;;;13.07;12.67;;;21.20;1.00;;;;;;4925596;29;20488;-83
2023/07/16 03:39:38;;;;;;;13.40;13.00;;;21.10;1.00;;;;;;4918907;29;20472;-84
2023/07/16 03:42:07;;;;;;;13.10;12.80;;;21.10;1.00;;;;;;4921008;29;20469;-84
2023/07/16 03:44:35;;;;;;;14.13;13.37;;;21.10;1.00;;;;;;4920819;29;20906;-86
2023/07/16 03:47:05;;;;;;;13.43;13.03;;;21.00;1.00;;;;;;4921626;29;20484;-85
2023/07/16 03:49:33;;;;;;;13.43;12.93;;;21.10;1.00;;;;;;4920838;29;20818;-84
2023/07/16 03:52:01;;;;;;;13.70;13.20;;;21.10;1.00;;;;;;4923044;29;20452;-85
2023/07/16 03:54:29;;;;;;;14.07;13.67;;;21.00;1.00;;;;;;4922353;29;20464;-85
2023/07/16 03:56:57;;;;;;;14.20;13.80;;;20.90;1.00;;;;;;4917747;29;20499;-85
2023/07/16 03:59:26;;;;;;;14.00;13.60;;;20.90;1.00;;;;;;4919422;29;20465;-83
2023/07/16 04:01:54;;;;;;;13.83;13.30;;;20.90;1.00;;;;;;4914527;29;20890;-84
2023/07/16 04:04:23;;;;;;;14.00;13.60;;;20.90;1.00;;;;;;4918318;29;20478;-86
2023/07/16 04:06:51;;;;;;;13.63;13.23;;;20.90;1.00;;;;;;4919697;29;20518;-85
2023/07/16 04:09:20;;;;;;;13.73;13.23;;;20.90;1.00;;;;;;4922459;29;20527;-86
2023/07/16 04:11:48;;;;;;;13.43;13.13;;;20.90;1.00;;;;;;4922320;29;20492;-85
2023/07/16 04:14:16;;;;;;;13.67;13.27;;;21.00;1.00;;;;;;4925377;29;20464;-84
2023/07/16 04:16:44;;;;;;;13.50;13.20;;;21.00;1.00;;;;;;4922347;29;20916;-85
2023/07/16 04:19:13;;;;;;;13.60;13.20;;;21.00;1.00;;;;;;4919006;29;20448;-84
2023/07/16 04:21:42;;;;;;;13.80;13.40;;;21.00;1.00;;;;;;4919632;29;20473;-84
2023/07/16 04:24:11;;;;;;;13.60;13.30;;;21.00;1.00;;;;;;4920903;29;20471;-84
2023/07/16 04:26:39;;;;;;;13.90;13.40;;;21.00;1.00;;;;;;4917266;29;20578;-84
2023/07/16 04:29:07;;;;;;;13.73;13.33;;;21.00;1.00;;;;;;4920730;29;20478;-84
2023/07/16 04:31:35;;;;;;;13.70;13.30;;;21.10;1.00;;;;;;4919390;29;20453;-84
2023/07/16 04:34:03;;;;;;;13.87;13.47;;;21.10;1.00;;;;;;4919743;29;20454;-83
2023/07/16 04:36:32;;;;;;;13.80;13.40;;;21.00;1.00;;;;;;4922013;29;20488;-85
2023/07/16 04:39:02;;;;;;;13.80;13.37;;;21.00;1.00;;;;;;4916932;29;20464;-84
2023/07/16 04:41:30;;;;;;;13.77;13.37;;;20.90;1.00;;;;;;4907333;29;20476;-87
2023/07/16 04:43:58;;;;;;;14.27;13.77;;;21.00;1.00;;;;;;4920117;29;20532;-86
2023/07/16 04:46:26;;;;;;;14.40;13.70;;;20.90;1.00;;;;;;4904221;29;20515;-86
2023/07/16 04:48:54;;;;;;;13.97;13.50;;;20.80;1.00;;;;;;4922746;29;20472;-87
2023/07/16 04:51:23;;;;;;;14.20;13.70;;;20.90;1.00;;;;;;4919050;29;21936;-86
2023/07/16 04:53:51;;;;;;;13.40;13.10;;;20.90;1.00;;;;;;4918896;29;20468;-87
2023/07/16 04:56:20;;;;;;;14.23;13.83;;;20.90;1.00;;;;;;4923510;29;20481;-86
2023/07/16 04:58:48;;;;;;;14.00;13.40;;;20.90;1.00;;;;;;4920933;29;20548;-85
2023/07/16 05:01:17;;;;;;;13.90;13.23;;;20.90;1.00;;;;;;4919261;29;20469;-85
2023/07/16 05:03:45;;;;;;;14.13;13.50;;;21.00;1.00;;;;;;4922854;29;20468;-84
2023/07/16 05:06:13;;;;;;;14.17;13.53;;;21.00;1.00;;;;;;4921347;29;21002;-86
2023/07/16 05:08:42;;;;;;;14.83;13.60;;;21.00;1.00;;;;;;4908253;29;20468;-87
2023/07/16 05:11:13;;;;;;;14.00;13.50;;;20.90;1.00;;;;;;4920112;29;20505;-85
2023/07/16 05:13:42;;;;;;;13.63;13.23;;;20.80;1.00;;;;;;4919419;29;20468;-85
2023/07/16 05:16:10;;;;;;;13.67;13.17;;;21.00;56.40;;;;;;4918710;29;20501;-84
2023/07/16 05:18:40;;;;;;;14.30;13.57;;;21.10;99.90;;;;;;4921492;29;20947;-86
2023/07/16 05:21:08;;;;;;;14.40;13.80;;;21.00;62.80;;;;;;4917308;29;20458;-84
2023/07/16 05:23:36;;;;;;;14.30;13.60;;;20.80;99.90;;;;;;4917014;29;20517;-84
2023/07/16 05:26:04;;;;;;;14.47;13.97;;;20.80;99.90;;;;;;4918601;29;20634;-84
2023/07/16 05:28:32;;;;;;;14.77;14.20;;;20.80;39.60;;;;;;4919029;29;20459;-84
2023/07/16 05:31:03;;;;;;;15.10;14.50;;;20.80;62.50;;;;;;4917406;29;20824;-83
2023/07/16 05:33:32;;;;;;;14.70;14.10;;;20.80;8.50;;;;;;4920679;29;20540;-86
2023/07/16 05:36:00;;;;;;;14.23;13.47;;;20.70;1.00;;;;;;4916298;29;20485;-86
2023/07/16 05:38:28;;;;;;;14.40;13.90;;;20.70;1.00;;;;;;4922903;29;20519;-85
2023/07/16 05:41:01;;;;;;;14.13;13.57;;;20.70;4.00;;;;;;4921580;29;20459;-84
2023/07/16 05:43:29;;;;;;;13.93;13.50;;;20.80;9.80;;;;;;4921246;29;20525;-83
2023/07/16 05:45:58;;;;;;;14.33;13.60;;;20.80;1.00;;;;;;4916844;29;20496;-85
2023/07/16 05:48:28;;;;;;;14.63;14.13;;;20.80;64.40;;;;;;4902147;29;20465;-83
2023/07/16 05:50:56;;;;;;;14.27;13.80;;;20.90;1.00;;;;;;4914759;29;20485;-83
2023/07/16 05:53:24;;;;;;;14.53;13.93;;;21.00;1.00;;;;;;4920315;29;21179;-84
2023/07/16 05:55:53;;;;;;;14.47;13.83;;;20.80;1.00;;;;;;4919214;29;20468;-85
2023/07/16 05:58:21;;;;;;;14.00;13.50;;;20.80;13.40;;;;;;4921083;29;20461;-83
2023/07/16 06:00:49;;;;;;;14.20;13.50;;;20.70;1.00;;;;;;4921067;29;20472;-83
2023/07/16 06:03:23;;;;;;;14.27;13.40;;;20.80;1.00;;;;;;4919458;29;20467;-83
2023/07/16 06:05:52;;;;;;;13.80;13.30;;;20.80;1.00;;;;;;4919335;29;20921;-84
2023/07/16 06:08:21;;;;;;;13.90;13.30;;;20.80;4.90;;;;;;4918542;29;20595;-85
2023/07/16 06:10:49;;;;;;;14.00;13.50;;;20.80;1.00;;;;;;4922244;29;20496;-84
2023/07/16 06:13:17;;;;;;;14.33;13.73;;;20.80;1.00;;;;;;4920636;29;20906;-83
2023/07/16 06:15:46;;;;;;;14.03;13.43;;;20.80;1.00;;;;;;4903154;29;20465;-84
2023/07/16 06:19:07;;;;;;;13.80;13.37;;;20.80;1.00;;;;;;4922060;29;20558;-84
2023/07/16 06:21:36;;;;;;;13.73;13.33;;;20.80;1.00;;;;;;4922423;29;20492;-84
2023/07/16 06:24:10;;;;;;;14.80;14.20;;;20.80;1.00;;;;;;4921492;29;20479;-84
2023/07/16 06:26:56;;;;;;;14.80;14.10;;;20.80;1.00;;;;;;4925445;29;21056;-83
2023/07/16 06:29:48;;;;;;;14.67;13.80;;;20.80;1.00;;;;;;4922026;29;20464;-85
2023/07/16 06:32:50;;;;;;;14.67;13.97;;;20.70;1.00;;;;;;4923239;29;20469;-86
2023/07/16 06:35:20;;;;;;;14.00;13.50;;;20.80;1.00;;;;;;4923206;29;20474;-87
2023/07/16 06:38:17;;;;;;;14.20;13.70;;;20.80;1.00;;;;;;4922708;29;20534;-86
2023/07/16 06:40:50;;;;;;;13.97;13.50;;;20.70;1.00;;;;;;4920400;29;20453;-84
2023/07/16 06:43:18;;;;;;;15.43;14.20;;;20.80;1.00;;;;;;4916754;29;20470;-84
2023/07/16 06:45:47;;;;;;;14.07;13.57;;;20.70;1.00;;;;;;4921499;29;20460;-84
2023/07/16 06:48:15;;;;;;;15.00;14.13;;;20.80;1.00;;;;;;4925720;29;20922;-85
2023/07/16 06:50:44;;;;;;;13.80;13.17;;;20.90;1.00;;;;;;4916001;29;20543;-82
2023/07/16 06:53:12;;;;;;;13.80;13.40;;;20.90;1.00;;;;;;4919977;29;20473;-76
2023/07/16 06:55:41;;;;;;;13.87;13.43;;;21.00;1.00;;;;;;4922917;29;20471;-75
2023/07/16 06:58:11;;;;;;;14.10;13.60;;;21.20;1.00;;;;;;4922470;29;20964;-73
2023/07/16 07:00:40;;;;;;;13.87;13.47;;;21.10;1.00;;;;;;4920881;29;20457;-72
2023/07/16 07:03:08;;;;;;;13.93;13.33;;;21.10;1.00;;;;;;4915325;29;20456;-71
2023/07/16 07:05:36;;;;;;;14.00;13.60;;;21.30;1.00;;;;;;4918163;29;20863;-72
2023/07/16 07:08:05;;;;;;;13.20;12.80;;;21.40;1.00;;;;;;4921526;29;20461;-75
2023/07/16 07:10:35;;;;;;;14.57;13.60;;;21.40;1.00;;;;;;4921861;29;20486;-74
2023/07/16 07:13:04;;;;;;;13.93;13.30;;;21.10;1.00;;;;;;4919449;29;20457;-73
2023/07/16 07:15:32;;;;;;;13.37;12.97;;;21.20;1.00;;;;;;4918932;29;20451;-75
2023/07/16 07:18:00;;;;;;;13.60;13.20;;;21.30;1.00;;;;;;4923014;29;20504;-72
2023/07/16 07:20:29;;;;;;;13.00;12.63;;;21.30;1.00;;;;;;4919628;29;20482;-75
2023/07/16 07:22:57;;;;;;;14.60;13.90;;;21.30;1.00;;;;;;4922347;29;20464;-73
2023/07/16 07:25:25;;;;;;;14.57;13.80;;;21.40;1.00;;;;;;4914871;29;20685;-73
2023/07/16 07:27:53;;;;;;;14.10;13.60;;;21.60;1.00;;;;;;4916958;29;20487;-76
2023/07/16 07:30:22;;;;;;;13.87;13.37;;;21.60;1.00;;;;;;4913132;29;20505;-73
2023/07/16 07:32:51;;;;;;;13.90;13.40;;;21.60;99.90;;;;;;4923471;29;20957;-73
2023/07/16 07:35:19;;;;;;;13.83;13.33;;;21.50;99.90;;;;;;4918825;29;20484;-76
2023/07/16 07:37:47;;;;;;;14.30;13.70;;;21.60;99.90;;;;;;4920202;29;20476;-74
2023/07/16 07:40:15;;;;;;;13.23;12.73;;;21.70;99.90;;;;;;4920790;29;21038;-74
2023/07/16 07:42:43;;;;;;;13.87;13.27;;;21.80;99.90;;;;;;4917286;29;20604;-73
2023/07/16 07:45:11;;;;;;;13.38;12.88;;;21.80;99.90;;;;;;4918225;29;20469;-75
2023/07/16 07:47:41;;;;;;;13.53;13.13;;;21.70;99.90;;;;;;4916656;29;20782;-75
2023/07/16 07:50:10;;;;;;;13.50;13.10;;;21.80;99.90;;;;;;4915689;29;20620;-86
2023/07/16 07:52:38;;;;;;;14.10;13.50;;;21.80;99.90;;;;;;4919022;29;20730;-86
2023/07/16 07:55:07;;;;;;;15.00;14.10;;;21.80;99.90;;;;;;4914912;29;20461;-84
2023/07/16 07:57:35;;;;;;;14.80;14.17;;;21.90;99.90;;;;;;4921495;29;20584;-85
2023/07/16 08:00:04;;;;;;;14.00;13.40;;;21.90;99.90;;;;;;4923081;29;20466;-85
2023/07/16 08:02:32;;;;;;;13.80;13.30;;;22.00;99.90;;;;;;4919786;29;20450;-86
2023/07/16 08:05:01;;;;;;;13.00;12.60;;;22.10;99.90;;;;;;4919871;29;20477;-85
2023/07/16 08:07:32;;;;;;;14.07;13.40;;;22.20;99.90;;;;;;4922360;29;20489;-86
2023/07/16 08:10:00;;;;;;;13.73;13.23;;;22.20;99.90;;;;;;4923404;29;20465;-85
2023/07/16 08:12:30;;;;;;;13.90;13.23;;;22.30;99.90;;;;;;4918646;29;20496;-82
2023/07/16 08:14:59;;;;;;;13.17;12.50;;;22.40;99.90;;;;;;4920545;29;20485;-83
2023/07/16 08:17:27;;;;;;;13.90;13.40;;;22.40;99.90;;;;;;4922064;29;20500;-84
2023/07/16 08:19:55;;;;;;;14.30;13.73;;;22.50;99.90;;;;;;4921561;29;20516;-83
2023/07/16 08:22:25;;;;;;;13.43;13.03;;;22.50;99.90;;;;;;4919470;29;20461;-83
2023/07/16 08:24:53;;;;;;;12.80;12.40;;;22.30;99.90;;;;;;4919487;29;20472;-85
2023/07/16 08:27:21;;;;;;;13.27;12.87;;;22.30;99.90;;;;;;4914092;29;20477;-75
2023/07/16 08:29:49;;;;;;;13.63;13.13;;;22.40;99.90;;;;;;4894197;29;20465;-76
2023/07/16 08:32:17;;;;;;;13.40;12.90;;;22.50;99.90;;;;;;4919299;29;20513;-78
2023/07/16 08:34:46;;;;;;;13.20;12.60;;;22.60;99.90;;;;;;4918629;29;20862;-79
2023/07/16 08:37:14;;;;;;;13.30;12.90;;;22.60;99.90;;;;;;4920653;29;20484;-81
2023/07/16 08:39:43;;;;;;;13.67;12.90;;;22.60;99.90;;;;;;4918313;29;20986;-81
2023/07/16 08:42:12;;;;;;;13.27;12.83;;;22.70;99.90;;;;;;4914995;29;20477;-81
2023/07/16 08:44:41;;;;;;;13.10;12.60;;;22.70;99.90;;;;;;4925590;29;20492;-81
2023/07/16 08:47:10;;;;;;;12.67;12.20;;;22.70;99.90;;;;;;4918736;29;20886;-81
2023/07/16 08:49:41;;;;;;;12.60;12.10;;;22.60;99.90;;;;;;4921363;29;20465;-81
2023/07/16 08:52:11;;;;;;;12.00;11.60;;;22.50;99.90;;;;;;4918538;29;20494;-80
2023/07/16 08:54:39;;;;;;;12.50;12.10;;;22.50;99.90;;;;;;4920037;29;20479;-81
2023/07/16 08:57:11;;;;;;;12.90;12.40;;;22.50;99.90;;;;;;4923121;29;20468;-80
2023/07/16 08:59:40;;;;;;;12.83;12.33;;;22.60;99.90;;;;;;4924545;29;20545;-82
2023/07/16 09:02:15;;;;;;;13.30;12.80;;;22.70;99.90;;;;;;4924781;29;20487;-80
2023/07/16 09:07:41;;;;;;;12.30;11.90;;;22.70;99.90;;;;;;4921126;29;20638;-81
2023/07/16 09:10:12;;;;;;;12.50;12.00;;;22.80;99.90;;;;;;4924096;29;20462;-81
2023/07/16 09:12:47;;;;;;;12.43;12.03;;;22.80;99.90;;;;;;4925137;29;20781;-83
2023/07/16 09:15:19;;;;;;;12.97;12.33;;;22.80;99.90;;;;;;4920371;29;20893;-81
2023/07/16 09:17:51;;;;;;;12.90;12.30;;;22.90;99.90;;;;;;4922312;29;21029;-81
2023/07/16 09:20:27;;;;;;;13.30;12.80;;;22.90;99.90;;;;;;4926368;29;20460;-82
2023/07/16 09:23:05;;;;;;;11.80;11.50;;;23.00;99.90;;;;;;4925978;29;20572;-81
2023/07/16 09:25:34;;;;;;;12.90;12.50;;;23.10;99.90;;;;;;4922783;29;20898;-81
2023/07/16 09:28:05;;;;;;;13.23;12.83;;;23.10;99.90;;;;;;4922634;29;20485;-81
2023/07/16 09:30:34;;;;;;;12.40;12.10;;;23.10;99.90;;;;;;4924067;29;20464;-81
2023/07/16 09:33:14;;;;;;;12.43;12.03;;;23.20;99.90;;;;;;4923116;29;21108;-81
2023/07/16 09:35:43;;;;;;;12.80;12.30;;;23.20;99.90;;;;;;4924315;29;20532;-80
2023/07/16 09:38:13;;;;;;;12.90;12.50;;;23.20;99.90;;;;;;4920145;29;21163;-82
2023/07/16 09:40:42;;;;;;;12.90;12.60;;;23.30;99.90;;;;;;4925864;29;20460;-83
2023/07/16 09:43:13;;;;;;;12.10;11.80;;;23.30;99.90;;;;;;4922974;29;20456;-80
2023/07/16 09:45:41;;;;;;;12.30;11.90;;;23.30;99.90;;;;;;4922697;29;20468;-81
2023/07/16 09:48:10;;;;;;;12.50;12.10;;;23.30;99.90;;;;;;4923949;29;20457;-82
2023/07/16 09:50:41;;;;;;;12.77;12.13;;;23.10;99.90;;;;;;4926578;29;20458;-81
2023/07/16 09:53:12;;;;;;;12.90;12.40;;;23.20;99.90;;;;;;4922374;29;20493;-81
2023/07/16 09:55:41;;;;;;;13.07;12.57;;;23.20;99.90;;;;;;4927242;29;21029;-81
2023/07/16 09:58:13;;;;;;;12.00;11.70;;;23.20;99.90;;;;;;4926239;29;20480;-82
2023/07/16 10:00:44;;;;;;;12.67;12.27;;;23.10;99.90;;;;;;4926581;29;20888;-82
2023/07/16 10:03:29;;;;;;;13.17;12.70;;;23.10;99.90;;;;;;4927386;29;20449;-82
2023/07/16 10:06:07;;;;;;;13.03;12.43;;;23.00;99.90;;;;;;4926539;29;20463;-82
2023/07/16 10:08:36;;;;;;;12.67;12.27;;;23.20;99.90;;;;;;4924937;29;20472;-82
2023/07/16 10:15:51;;;;;;;13.03;12.53;;;23.30;99.90;;;;;;4927358;29;20462;-79
2023/07/16 10:22:43;;;;;;;13.10;12.70;;;23.30;99.90;;;;;;4926865;29;20459;-82
2023/07/16 10:26:42;;;;;;;12.53;12.13;;;23.30;99.90;;;;;;4939514;23;21046;-82
2023/07/16 10:38:49;;;;;;;12.13;11.73;;;23.70;99.90;;;;;;5078026;23;20864;-81
2023/07/16 10:42:07;;;;;;;13.00;12.50;;;23.70;99.90;;;;;;4981882;28;20493;-79
2023/07/16 10:44:36;;;;;;;13.40;12.83;;;23.70;99.90;;;;;;4981972;28;20462;-80
2023/07/16 10:47:05;;;;;;;12.40;11.97;;;23.60;99.90;;;;;;4993268;23;20514;-82
2023/07/16 10:49:33;;;;;;;12.87;12.47;;;23.70;99.90;;;;;;4983809;28;20913;-81
2023/07/16 10:56:54;;;;;;;11.17;10.87;;;23.70;99.90;;;;;;5005563;23;20482;-82
2023/07/16 10:59:23;;;;;;;12.20;11.70;;;23.70;99.90;;;;;;4983038;28;20469;-82
2023/07/16 11:02:16;;;;;;;11.73;11.30;;;23.60;99.90;;;;;;4984026;28;20454;-83
2023/07/16 11:04:57;;;;;;;12.33;11.93;;;23.60;99.90;;;;;;4975175;28;20716;-83
2023/07/16 11:07:33;;;;;;;12.40;12.10;;;23.70;99.90;;;;;;4975491;28;20473;-83
2023/07/16 11:11:32;;;;;;;12.37;11.97;;;23.80;99.90;;;;;;4969707;28;21196;-83
2023/07/16 11:14:05;;;;;;;12.57;12.17;;;23.90;99.90;;;;;;4960324;28;20517;-82
2023/07/16 11:16:36;;;;;;;13.00;12.60;;;23.90;99.90;;;;;;4979969;28;20475;-81
2023/07/16 11:19:06;;;;;;;12.90;12.47;;;24.00;99.90;;;;;;4975415;28;20459;-82
2023/07/16 11:21:34;;;;;;;13.03;12.47;;;24.00;99.90;;;;;;4975724;28;20455;-80
2023/07/16 11:24:09;;;;;;;12.63;12.23;;;24.10;99.90;;;;;;4974778;28;20455;-82
2023/07/16 11:26:54;;;;;;;12.50;12.10;;;24.10;99.90;;;;;;5026309;23;20498;-81
2023/07/16 11:29:54;;;;;;;11.90;11.60;;;24.20;99.90;;;;;;4960523;28;20465;-82
2023/07/16 11:32:32;;;;;;;11.80;10.90;;;24.10;99.90;;;;;;4975592;28;20486;-80
2023/07/16 11:35:02;;;;;;;11.67;11.13;;;24.20;99.90;;;;;;4975286;28;20885;-78
2023/07/16 11:37:32;;;;;;;11.70;11.30;;;24.20;99.90;;;;;;4979784;28;20486;-80
2023/07/16 11:40:07;;;;;;;11.53;11.17;;;24.30;99.90;;;;;;4983709;28;20459;-81
2023/07/16 11:48:28;;;;;;;11.37;10.90;;;24.50;99.90;;;;;;4903764;29;20484;-81
2023/07/16 11:50:56;;;;;;;11.50;11.20;;;24.40;99.90;;;;;;4921387;29;20474;-81
2023/07/16 11:53:25;;;;;;;11.20;10.80;;;24.40;99.90;;;;;;4909265;29;20589;-80
2023/07/16 11:56:47;;;;;;;11.07;10.77;;;24.40;99.90;;;;;;4922534;23;20467;-81
2023/07/16 11:59:19;;;;;;;11.03;10.63;;;24.40;99.90;;;;;;4916114;29;21053;-80
2023/07/16 12:01:51;;;;;;;12.37;11.77;;;24.40;99.90;;;;;;4920397;29;20465;-78
2023/07/16 12:04:20;;;;;;;11.93;11.40;;;24.50;99.90;;;;;;4916521;29;20592;-80
2023/07/16 12:06:48;;;;;;;11.70;11.30;;;24.50;99.90;;;;;;4998588;23;20503;-80
2023/07/16 12:09:16;;;;;;;11.37;11.00;;;24.50;99.90;;;;;;4955719;28;20473;-80
2023/07/16 12:11:45;;;;;;;11.50;11.10;;;24.60;99.90;;;;;;4955266;28;20463;-80
2023/07/16 12:14:17;;;;;;;11.70;11.30;;;24.60;99.90;;;;;;4955724;28;20486;-79
2023/07/16 12:21:10;;;;;;;11.17;10.87;;;24.60;99.90;;;;;;4870139;29;20508;-83
2023/07/16 12:28:15;;;;;;;;;;;;;;;;;;;;;
2023/07/16 12:35:30;;;;;;;11.67;11.17;;;24.60;99.90;;;;;;4887785;29;20463;-85
2023/07/16 12:38:06;;;;;;;10.87;10.57;;;24.50;99.90;;;;;;4888608;29;20717;-87
2023/07/16 12:52:02;;;;;;;12.13;11.83;;;24.50;99.90;;;;;;4956807;28;20463;-85
2023/07/16 12:55:16;;;;;;;11.47;11.00;;;24.60;99.90;;;;;;4959662;28;20569;-84
2023/07/16 12:58:21;;;;;;;11.50;11.10;;;24.70;99.90;;;;;;4941679;28;20543;-85
2023/07/16 13:01:43;;;;;;;11.77;11.37;;;24.60;99.90;;;;;;4940233;28;20478;-78
2023/07/16 13:04:28;;;;;;;11.07;10.77;;;24.70;99.90;;;;;;4938795;28;20951;-78
2023/07/16 13:06:56;;;;;;;11.20;10.80;;;24.80;99.90;;;;;;4936918;28;20523;-79
2023/07/16 13:09:24;;;;;;;10.93;10.63;;;24.80;99.90;;;;;;4931624;28;20479;-79
2023/07/16 13:11:52;;;;;;;11.67;11.20;;;24.80;99.90;;;;;;4933958;28;20465;-80
2023/07/16 13:14:21;;;;;;;11.33;11.00;;;24.90;99.90;;;;;;4934504;28;20476;-79
2023/07/16 13:16:50;;;;;;;11.33;10.93;;;24.90;99.90;;;;;;4933992;28;20468;-80
2023/07/16 13:19:18;;;;;;;11.17;10.87;;;25.00;99.90;;;;;;4932432;28;20457;-80
2023/07/16 13:21:46;;;;;;;11.30;11.00;;;25.00;99.90;;;;;;4932067;28;20448;-78
2023/07/16 13:24:14;;;;;;;11.30;10.90;;;25.00;99.90;;;;;;4934006;28;21061;-76
2023/07/16 13:26:42;;;;;;;11.67;11.27;;;25.10;99.90;;;;;;4938005;28;20897;-78
2023/07/16 13:29:14;;;;;;;11.40;11.10;;;25.20;99.90;;;;;;4937296;28;20464;-77
2023/07/16 13:31:43;;;;;;;10.90;10.50;;;25.20;99.90;;;;;;4935641;28;20475;-79
2023/07/16 13:34:11;;;;;;;11.97;11.50;;;25.20;99.90;;;;;;4935073;28;20483;-79
2023/07/16 13:36:40;;;;;;;10.80;10.40;;;25.20;99.90;;;;;;4937503;28;20468;-78
2023/07/16 13:39:08;;;;;;;10.53;10.27;;;25.20;99.90;;;;;;4938452;28;20463;-79
2023/07/16 13:41:36;;;;;;;11.33;10.93;;;25.20;99.90;;;;;;4936477;28;20468;-79
2023/07/16 13:44:04;;;;;;;12.10;11.50;;;25.20;99.90;;;;;;4938773;28;20519;-79
2023/07/16 13:46:32;;;;;;;10.73;10.40;;;25.20;99.90;;;;;;4950340;28;20494;-79
2023/07/16 13:49:02;;;;;;;11.13;10.67;;;25.30;99.90;;;;;;4937692;28;20460;-77
2023/07/16 13:51:30;;;;;;;10.63;10.30;;;25.30;99.90;;;;;;4935034;28;20468;-77
2023/07/16 13:53:58;;;;;;;10.27;10.07;;;25.30;99.90;;;;;;4936309;28;20855;-78